sensor_id;sensor_type;location;lat;lon;timestamp;temperature;humidity
3954;DHT22;1991;48.682;9.030;2023-08-12T00:00:21;20.00;99.90
3954;DHT22;1991;48.682;9.030;2023-08-12T00:02:47;20.00;99.90
3954;DHT22;1991;48.682;9.030;2023-08-12T00:05:13;20.00;99.90
3954;DHT22;1991;48.682;9.030;2023-08-12T00:07:42;19.90;99.90
3954;DHT22;1991;48.682;9.030;2023-08-12T00:10:08;19.90;99.90
3954;DHT22;1991;48.682;9.030;2023-08-12T00:12:34;19.90;99.90
3954;DHT22;1991;48.682;9.030;2023-08-12T00:15:00;19.80;99.90
3954;DHT22;1991;48.682;9.030;2023-08-12T00:17:26;19.80;99.90
3954;DHT22;1991;48.682;9.030;2023-08-12T00:19:52;19.80;99.90
3954;DHT22;1991;48.682;9.030;2023-08-12T00:22:17;19.90;99.90
3954;DHT22;1991;48.682;9.030;2023-08-12T00:24:46;19.80;99.90
3954;DHT22;1991;48.682;9.030;2023-08-12T00:27:12;19.80;99.90
3954;DHT22;1991;48.682;9.030;2023-08-12T00:29:37;19.80;99.90
3954;DHT22;1991;48.682;9.030;2023-08-12T00:32:03;19.80;99.90
3954;DHT22;1991;48.682;9.030;2023-08-12T00:34:29;19.70;99.90
3954;DHT22;1991;48.682;9.030;2023-08-12T00:36:54;19.70;99.90
3954;DHT22;1991;48.682;9.030;2023-08-12T00:39:20;19.70;99.90
3954;DHT22;1991;48.682;9.030;2023-08-12T00:41:46;19.60;99.90
3954;DHT22;1991;48.682;9.030;2023-08-12T00:44:11;19.60;99.90
3954;DHT22;1991;48.682;9.030;2023-08-12T00:46:38;19.60;99.90
3954;DHT22;1991;48.682;9.030;2023-08-12T00:49:04;19.60;99.90
3954;DHT22;1991;48.682;9.030;2023-08-12T00:51:30;19.50;99.90
3954;DHT22;1991;48.682;9.030;2023-08-12T00:53:58;19.50;99.90
3954;DHT22;1991;48.682;9.030;2023-08-12T00:56:24;19.50;99.90
3954;DHT22;1991;48.682;9.030;2023-08-12T00:58:51;19.50;99.90
3954;DHT22;1991;48.682;9.030;2023-08-12T01:01:17;19.40;99.90
3954;DHT22;1991;48.682;9.030;2023-08-12T01:03:43;19.40;99.90
3954;DHT22;1991;48.682;9.030;2023-08-12T01:06:09;19.40;99.90
3954;DHT22;1991;48.682;9.030;2023-08-12T01:08:35;19.40;99.90
3954;DHT22;1991;48.682;9.030;2023-08-12T01:11:14;19.40;99.90
3954;DHT22;1991;48.682;9.030;2023-08-12T01:14:12;19.40;99.90
3954;DHT22;1991;48.682;9.030;2023-08-12T01:16:43;19.40;99.90
3954;DHT22;1991;48.682;9.030;2023-08-12T01:19:13;19.40;99.90
3954;DHT22;1991;48.682;9.030;2023-08-12T01:21:44;19.40;99.90
3954;DHT22;1991;48.682;9.030;2023-08-12T01:24:11;19.30;99.90
3954;DHT22;1991;48.682;9.030;2023-08-12T01:26:37;19.30;99.90
3954;DHT22;1991;48.682;9.030;2023-08-12T01:29:03;19.30;99.90
3954;DHT22;1991;48.682;9.030;2023-08-12T01:31:36;19.30;99.90
3954;DHT22;1991;48.682;9.030;2023-08-12T01:34:26;19.20;99.90
3954;DHT22;1991;48.682;9.030;2023-08-12T01:36:55;19.20;99.90
3954;DHT22;1991;48.682;9.030;2023-08-12T01:39:24;19.20;99.90
3954;DHT22;1991;48.682;9.030;2023-08-12T01:41:51;19.20;99.90
3954;DHT22;1991;48.682;9.030;2023-08-12T01:44:18;19.20;99.90
3954;DHT22;1991;48.682;9.030;2023-08-12T01:46:44;19.20;99.90
3954;DHT22;1991;48.682;9.030;2023-08-12T01:49:10;19.30;99.90
3954;DHT22;1991;48.682;9.030;2023-08-12T01:51:35;19.30;99.90
3954;DHT22;1991;48.682;9.030;2023-08-12T01:54:01;19.30;99.90
3954;DHT22;1991;48.682;9.030;2023-08-12T01:56:26;19.30;99.90
3954;DHT22;1991;48.682;9.030;2023-08-12T01:58:52;19.30;99.90
3954;DHT22;1991;48.682;9.030;2023-08-12T02:01:17;19.30;99.90
3954;DHT22;1991;48.682;9.030;2023-08-12T02:03:43;19.30;99.90
3954;DHT22;1991;48.682;9.030;2023-08-12T02:06:09;19.30;99.90
3954;DHT22;1991;48.682;9.030;2023-08-12T02:08:34;19.30;99.90
3954;DHT22;1991;48.682;9.030;2023-08-12T02:11:00;19.30;99.90
3954;DHT22;1991;48.682;9.030;2023-08-12T02:13:25;19.30;99.90
3954;DHT22;1991;48.682;9.030;2023-08-12T02:15:51;19.20;99.90
3954;DHT22;1991;48.682;9.030;2023-08-12T02:18:16;19.30;99.90
3954;DHT22;1991;48.682;9.030;2023-08-12T02:20:42;19.30;99.90
3954;DHT22;1991;48.682;9.030;2023-08-12T02:23:07;19.30;99.90
3954;DHT22;1991;48.682;9.030;2023-08-12T02:25:33;19.30;99.90
3954;DHT22;1991;48.682;9.030;2023-08-12T02:27:59;19.40;99.90
3954;DHT22;1991;48.682;9.030;2023-08-12T02:30:24;19.40;99.90
3954;DHT22;1991;48.682;9.030;2023-08-12T02:32:50;19.40;99.90
3954;DHT22;1991;48.682;9.030;2023-08-12T02:35:18;19.40;99.90
3954;DHT22;1991;48.682;9.030;2023-08-12T02:37:43;19.40;99.90
3954;DHT22;1991;48.682;9.030;2023-08-12T02:40:09;19.40;99.90
3954;DHT22;1991;48.682;9.030;2023-08-12T02:42:36;19.40;99.90
3954;DHT22;1991;48.682;9.030;2023-08-12T02:45:01;19.50;99.90
3954;DHT22;1991;48.682;9.030;2023-08-12T02:47:28;19.50;99.90
3954;DHT22;1991;48.682;9.030;2023-08-12T02:49:53;19.50;99.90
3954;DHT22;1991;48.682;9.030;2023-08-12T02:52:19;19.50;99.90
3954;DHT22;1991;48.682;9.030;2023-08-12T02:54:44;19.50;99.90
3954;DHT22;1991;48.682;9.030;2023-08-12T02:57:10;19.50;99.90
3954;DHT22;1991;48.682;9.030;2023-08-12T02:59:35;19.40;99.90
3954;DHT22;1991;48.682;9.030;2023-08-12T03:02:01;19.40;99.90
3954;DHT22;1991;48.682;9.030;2023-08-12T03:04:26;19.50;99.90
3954;DHT22;1991;48.682;9.030;2023-08-12T03:06:52;19.40;99.90
3954;DHT22;1991;48.682;9.030;2023-08-12T03:09:18;19.40;99.90
3954;DHT22;1991;48.682;9.030;2023-08-12T03:11:44;19.40;99.90
3954;DHT22;1991;48.682;9.030;2023-08-12T03:14:09;19.40;99.90
3954;DHT22;1991;48.682;9.030;2023-08-12T03:16:35;19.40;99.90
3954;DHT22;1991;48.682;9.030;2023-08-12T03:19:00;19.40;99.90
3954;DHT22;1991;48.682;9.030;2023-08-12T03:21:26;19.40;99.90
3954;DHT22;1991;48.682;9.030;2023-08-12T03:23:51;19.50;99.90
3954;DHT22;1991;48.682;9.030;2023-08-12T03:26:17;19.50;99.90
3954;DHT22;1991;48.682;9.030;2023-08-12T03:28:43;19.50;99.90
3954;DHT22;1991;48.682;9.030;2023-08-12T03:31:08;19.50;99.90
3954;DHT22;1991;48.682;9.030;2023-08-12T03:33:34;19.50;99.90
3954;DHT22;1991;48.682;9.030;2023-08-12T03:35:59;19.50;99.90
3954;DHT22;1991;48.682;9.030;2023-08-12T03:38:25;19.50;99.90
3954;DHT22;1991;48.682;9.030;2023-08-12T03:40:50;19.50;99.90
3954;DHT22;1991;48.682;9.030;2023-08-12T03:43:16;19.60;99.90
3954;DHT22;1991;48.682;9.030;2023-08-12T03:45:43;19.60;99.90
3954;DHT22;1991;48.682;9.030;2023-08-12T03:48:09;19.60;99.90
3954;DHT22;1991;48.682;9.030;2023-08-12T03:50:39;19.60;99.90
3954;DHT22;1991;48.682;9.030;2023-08-12T03:53:05;19.60;99.90
3954;DHT22;1991;48.682;9.030;2023-08-12T03:55:32;19.60;99.90
3954;DHT22;1991;48.682;9.030;2023-08-12T03:58:01;19.60;99.90
3954;DHT22;1991;48.682;9.030;2023-08-12T04:00:27;19.70;99.90
3954;DHT22;1991;48.682;9.030;2023-08-12T04:02:53;19.70;99.90
3954;DHT22;1991;48.682;9.030;2023-08-12T04:05:19;19.70;99.90
3954;DHT22;1991;48.682;9.030;2023-08-12T04:07:45;19.70;99.90
3954;DHT22;1991;48.682;9.030;2023-08-12T04:10:10;19.70;99.90
3954;DHT22;1991;48.682;9.030;2023-08-12T04:12:36;19.70;99.90
3954;DHT22;1991;48.682;9.030;2023-08-12T04:15:02;19.80;99.90
3954;DHT22;1991;48.682;9.030;2023-08-12T04:17:31;19.80;99.90
3954;DHT22;1991;48.682;9.030;2023-08-12T04:19:56;19.80;99.90
3954;DHT22;1991;48.682;9.030;2023-08-12T04:22:22;19.80;99.90
3954;DHT22;1991;48.682;9.030;2023-08-12T04:24:47;19.80;99.90
3954;DHT22;1991;48.682;9.030;2023-08-12T04:27:13;19.90;99.90
3954;DHT22;1991;48.682;9.030;2023-08-12T04:29:38;19.80;99.90
3954;DHT22;1991;48.682;9.030;2023-08-12T04:32:04;19.90;99.90
3954;DHT22;1991;48.682;9.030;2023-08-12T04:34:30;19.80;99.90
3954;DHT22;1991;48.682;9.030;2023-08-12T04:36:55;19.80;99.90
3954;DHT22;1991;48.682;9.030;2023-08-12T04:39:21;19.90;99.90
3954;DHT22;1991;48.682;9.030;2023-08-12T04:41:47;19.90;99.90
3954;DHT22;1991;48.682;9.030;2023-08-12T04:44:13;19.90;99.90
3954;DHT22;1991;48.682;9.030;2023-08-12T04:46:39;19.90;99.90
3954;DHT22;1991;48.682;9.030;2023-08-12T04:49:04;19.90;99.90
3954;DHT22;1991;48.682;9.030;2023-08-12T04:51:30;19.90;99.90
3954;DHT22;1991;48.682;9.030;2023-08-12T04:53:56;19.90;99.90
3954;DHT22;1991;48.682;9.030;2023-08-12T04:56:21;19.90;99.90
3954;DHT22;1991;48.682;9.030;2023-08-12T04:58:47;19.90;99.90
3954;DHT22;1991;48.682;9.030;2023-08-12T05:01:13;19.90;99.90
3954;DHT22;1991;48.682;9.030;2023-08-12T05:03:38;19.90;99.90
3954;DHT22;1991;48.682;9.030;2023-08-12T05:06:04;19.90;99.90
3954;DHT22;1991;48.682;9.030;2023-08-12T05:08:30;19.90;99.90
3954;DHT22;1991;48.682;9.030;2023-08-12T05:10:55;20.00;99.90
3954;DHT22;1991;48.682;9.030;2023-08-12T05:13:21;20.00;99.90
3954;DHT22;1991;48.682;9.030;2023-08-12T05:15:48;20.00;99.90
3954;DHT22;1991;48.682;9.030;2023-08-12T05:18:14;20.00;99.90
3954;DHT22;1991;48.682;9.030;2023-08-12T05:20:41;20.10;99.90
3954;DHT22;1991;48.682;9.030;2023-08-12T05:23:07;20.10;99.90
3954;DHT22;1991;48.682;9.030;2023-08-12T05:25:33;20.00;99.90
3954;DHT22;1991;48.682;9.030;2023-08-12T05:27:58;20.10;99.90
3954;DHT22;1991;48.682;9.030;2023-08-12T05:30:24;20.10;99.90
3954;DHT22;1991;48.682;9.030;2023-08-12T05:32:49;20.20;99.90
3954;DHT22;1991;48.682;9.030;2023-08-12T05:35:15;20.20;99.90
3954;DHT22;1991;48.682;9.030;2023-08-12T05:37:41;20.30;99.90
3954;DHT22;1991;48.682;9.030;2023-08-12T05:40:08;20.30;99.90
3954;DHT22;1991;48.682;9.030;2023-08-12T05:42:35;20.30;99.90
3954;DHT22;1991;48.682;9.030;2023-08-12T05:45:00;20.40;99.90
3954;DHT22;1991;48.682;9.030;2023-08-12T05:47:26;20.40;99.90
3954;DHT22;1991;48.682;9.030;2023-08-12T05:49:52;20.40;99.90
3954;DHT22;1991;48.682;9.030;2023-08-12T05:52:17;20.40;99.90
3954;DHT22;1991;48.682;9.030;2023-08-12T05:54:43;20.50;99.90
3954;DHT22;1991;48.682;9.030;2023-08-12T05:57:08;20.50;99.90
3954;DHT22;1991;48.682;9.030;2023-08-12T05:59:34;20.50;99.90
3954;DHT22;1991;48.682;9.030;2023-08-12T06:01:59;20.50;99.90
3954;DHT22;1991;48.682;9.030;2023-08-12T06:04:25;20.60;99.90
3954;DHT22;1991;48.682;9.030;2023-08-12T06:06:50;20.60;99.90
3954;DHT22;1991;48.682;9.030;2023-08-12T06:09:16;20.70;99.90
3954;DHT22;1991;48.682;9.030;2023-08-12T06:11:42;20.70;99.90
3954;DHT22;1991;48.682;9.030;2023-08-12T06:14:07;20.90;99.90
3954;DHT22;1991;48.682;9.030;2023-08-12T06:16:33;20.90;99.90
3954;DHT22;1991;48.682;9.030;2023-08-12T06:18:59;21.20;99.90
3954;DHT22;1991;48.682;9.030;2023-08-12T06:21:25;21.30;99.90
3954;DHT22;1991;48.682;9.030;2023-08-12T06:23:50;21.50;99.90
3954;DHT22;1991;48.682;9.030;2023-08-12T06:26:16;21.60;99.90
3954;DHT22;1991;48.682;9.030;2023-08-12T06:28:42;21.70;99.90
3954;DHT22;1991;48.682;9.030;2023-08-12T06:31:07;21.80;99.90
3954;DHT22;1991;48.682;9.030;2023-08-12T06:33:33;21.90;99.90
3954;DHT22;1991;48.682;9.030;2023-08-12T06:35:58;22.10;99.90
3954;DHT22;1991;48.682;9.030;2023-08-12T06:38:24;22.50;99.90
3954;DHT22;1991;48.682;9.030;2023-08-12T06:40:49;23.00;99.90
3954;DHT22;1991;48.682;9.030;2023-08-12T06:43:15;23.40;99.90
3954;DHT22;1991;48.682;9.030;2023-08-12T06:45:41;23.90;99.90
3954;DHT22;1991;48.682;9.030;2023-08-12T06:48:06;24.30;99.90
3954;DHT22;1991;48.682;9.030;2023-08-12T06:50:32;24.70;99.90
3954;DHT22;1991;48.682;9.030;2023-08-12T06:52:58;25.00;99.90
3954;DHT22;1991;48.682;9.030;2023-08-12T06:55:24;25.20;99.90
3954;DHT22;1991;48.682;9.030;2023-08-12T06:57:50;25.50;99.90
3954;DHT22;1991;48.682;9.030;2023-08-12T07:00:15;25.80;99.90
3954;DHT22;1991;48.682;9.030;2023-08-12T07:02:41;26.10;99.90
3954;DHT22;1991;48.682;9.030;2023-08-12T07:05:08;26.20;99.90
3954;DHT22;1991;48.682;9.030;2023-08-12T07:07:34;26.20;99.40
3954;DHT22;1991;48.682;9.030;2023-08-12T07:09:59;26.00;99.30
3954;DHT22;1991;48.682;9.030;2023-08-12T07:12:25;26.10;98.90
3954;DHT22;1991;48.682;9.030;2023-08-12T07:14:50;26.20;98.70
3954;DHT22;1991;48.682;9.030;2023-08-12T07:17:16;26.40;98.50
3954;DHT22;1991;48.682;9.030;2023-08-12T07:19:42;26.60;97.40
3954;DHT22;1991;48.682;9.030;2023-08-12T07:22:07;26.90;97.10
3954;DHT22;1991;48.682;9.030;2023-08-12T07:24:33;27.20;95.90
3954;DHT22;1991;48.682;9.030;2023-08-12T07:26:58;27.20;95.20
3954;DHT22;1991;48.682;9.030;2023-08-12T07:29:24;27.30;94.10
3954;DHT22;1991;48.682;9.030;2023-08-12T07:31:51;27.50;94.10
3954;DHT22;1991;48.682;9.030;2023-08-12T07:34:16;27.70;93.20
3954;DHT22;1991;48.682;9.030;2023-08-12T07:36:42;28.00;91.90
3954;DHT22;1991;48.682;9.030;2023-08-12T07:39:08;28.20;91.00
3954;DHT22;1991;48.682;9.030;2023-08-12T07:41:33;28.20;90.00
3954;DHT22;1991;48.682;9.030;2023-08-12T07:43:59;28.00;89.40
3954;DHT22;1991;48.682;9.030;2023-08-12T07:46:24;27.90;89.80
3954;DHT22;1991;48.682;9.030;2023-08-12T07:48:50;27.80;88.60
3954;DHT22;1991;48.682;9.030;2023-08-12T07:51:16;27.70;89.20
3954;DHT22;1991;48.682;9.030;2023-08-12T07:53:41;27.80;89.10
3954;DHT22;1991;48.682;9.030;2023-08-12T07:56:07;28.10;88.70
3954;DHT22;1991;48.682;9.030;2023-08-12T07:58:34;28.50;86.40
3954;DHT22;1991;48.682;9.030;2023-08-12T08:00:59;28.60;84.40
3954;DHT22;1991;48.682;9.030;2023-08-12T08:03:25;29.00;82.50
3954;DHT22;1991;48.682;9.030;2023-08-12T08:05:50;29.30;80.50
3954;DHT22;1991;48.682;9.030;2023-08-12T08:08:16;29.70;80.10
3954;DHT22;1991;48.682;9.030;2023-08-12T08:10:41;29.90;78.50
3954;DHT22;1991;48.682;9.030;2023-08-12T08:13:07;29.80;76.80
3954;DHT22;1991;48.682;9.030;2023-08-12T08:15:32;29.90;77.90
3954;DHT22;1991;48.682;9.030;2023-08-12T08:17:58;29.80;75.60
3954;DHT22;1991;48.682;9.030;2023-08-12T08:20:24;29.90;75.60
3954;DHT22;1991;48.682;9.030;2023-08-12T08:22:49;30.20;73.90
3954;DHT22;1991;48.682;9.030;2023-08-12T08:25:15;30.20;72.90
3954;DHT22;1991;48.682;9.030;2023-08-12T08:27:40;30.20;73.00
3954;DHT22;1991;48.682;9.030;2023-08-12T08:30:06;30.50;72.80
3954;DHT22;1991;48.682;9.030;2023-08-12T08:32:34;30.90;71.50
3954;DHT22;1991;48.682;9.030;2023-08-12T08:34:59;31.20;69.90
3954;DHT22;1991;48.682;9.030;2023-08-12T08:37:25;31.40;68.40
3954;DHT22;1991;48.682;9.030;2023-08-12T08:39:50;31.80;68.30
3954;DHT22;1991;48.682;9.030;2023-08-12T08:42:18;32.00;68.30
3954;DHT22;1991;48.682;9.030;2023-08-12T08:44:45;31.80;66.70
3954;DHT22;1991;48.682;9.030;2023-08-12T08:47:17;31.90;67.40
3954;DHT22;1991;48.682;9.030;2023-08-12T08:49:44;31.90;67.30
3954;DHT22;1991;48.682;9.030;2023-08-12T08:52:10;31.80;66.50
3954;DHT22;1991;48.682;9.030;2023-08-12T08:54:36;31.80;66.60
3954;DHT22;1991;48.682;9.030;2023-08-12T08:57:03;32.00;65.50
3954;DHT22;1991;48.682;9.030;2023-08-12T08:59:29;31.70;65.60
3954;DHT22;1991;48.682;9.030;2023-08-12T09:01:55;31.90;66.10
3954;DHT22;1991;48.682;9.030;2023-08-12T09:04:22;32.00;65.30
3954;DHT22;1991;48.682;9.030;2023-08-12T09:06:49;32.30;63.90
3954;DHT22;1991;48.682;9.030;2023-08-12T09:09:19;32.50;63.70
3954;DHT22;1991;48.682;9.030;2023-08-12T09:11:45;32.30;63.00
3954;DHT22;1991;48.682;9.030;2023-08-12T09:14:12;32.70;63.20
3954;DHT22;1991;48.682;9.030;2023-08-12T09:16:37;32.10;63.30
3954;DHT22;1991;48.682;9.030;2023-08-12T09:19:03;31.90;64.70
3954;DHT22;1991;48.682;9.030;2023-08-12T09:21:28;31.90;64.40
3954;DHT22;1991;48.682;9.030;2023-08-12T09:23:55;32.10;64.60
3954;DHT22;1991;48.682;9.030;2023-08-12T09:26:21;32.30;64.10
3954;DHT22;1991;48.682;9.030;2023-08-12T09:28:47;31.90;63.80
3954;DHT22;1991;48.682;9.030;2023-08-12T09:31:27;31.60;64.50
3954;DHT22;1991;48.682;9.030;2023-08-12T09:34:14;31.60;64.40
3954;DHT22;1991;48.682;9.030;2023-08-12T09:36:40;31.70;64.80
3954;DHT22;1991;48.682;9.030;2023-08-12T09:39:07;31.50;64.70
3954;DHT22;1991;48.682;9.030;2023-08-12T09:41:34;31.20;65.60
3954;DHT22;1991;48.682;9.030;2023-08-12T09:44:01;30.70;66.00
3954;DHT22;1991;48.682;9.030;2023-08-12T09:46:27;30.30;67.10
3954;DHT22;1991;48.682;9.030;2023-08-12T09:48:53;29.80;68.50
3954;DHT22;1991;48.682;9.030;2023-08-12T09:51:19;29.50;69.60
3954;DHT22;1991;48.682;9.030;2023-08-12T09:53:48;29.20;71.60
3954;DHT22;1991;48.682;9.030;2023-08-12T09:56:18;29.00;72.10
3954;DHT22;1991;48.682;9.030;2023-08-12T09:58:47;28.80;73.10
3954;DHT22;1991;48.682;9.030;2023-08-12T10:01:13;28.50;73.80
3954;DHT22;1991;48.682;9.030;2023-08-12T10:03:42;28.50;75.00
3954;DHT22;1991;48.682;9.030;2023-08-12T10:06:10;28.70;75.00
3954;DHT22;1991;48.682;9.030;2023-08-12T10:08:37;29.00;75.40
3954;DHT22;1991;48.682;9.030;2023-08-12T10:11:03;28.90;75.70
3954;DHT22;1991;48.682;9.030;2023-08-12T10:13:29;28.90;76.00
3954;DHT22;1991;48.682;9.030;2023-08-12T10:15:55;29.00;75.60
3954;DHT22;1991;48.682;9.030;2023-08-12T10:18:22;29.00;75.50
3954;DHT22;1991;48.682;9.030;2023-08-12T10:20:49;29.10;75.80
3954;DHT22;1991;48.682;9.030;2023-08-12T10:23:16;29.30;74.80
3954;DHT22;1991;48.682;9.030;2023-08-12T10:25:44;29.60;73.50
3954;DHT22;1991;48.682;9.030;2023-08-12T10:28:12;30.10;72.70
3954;DHT22;1991;48.682;9.030;2023-08-12T10:30:40;30.30;73.10
3954;DHT22;1991;48.682;9.030;2023-08-12T10:33:07;30.10;71.60
3954;DHT22;1991;48.682;9.030;2023-08-12T10:35:46;29.70;72.70
3954;DHT22;1991;48.682;9.030;2023-08-12T10:38:14;29.50;71.70
3954;DHT22;1991;48.682;9.030;2023-08-12T10:40:41;29.40;71.90
3954;DHT22;1991;48.682;9.030;2023-08-12T10:43:07;29.40;71.30
3954;DHT22;1991;48.682;9.030;2023-08-12T10:45:48;29.80;70.10
3954;DHT22;1991;48.682;9.030;2023-08-12T10:48:21;30.90;68.20
3954;DHT22;1991;48.682;9.030;2023-08-12T10:50:55;31.60;66.60
3954;DHT22;1991;48.682;9.030;2023-08-12T10:55:49;31.40;66.00
3954;DHT22;1991;48.682;9.030;2023-08-12T10:58:29;31.20;67.20
3954;DHT22;1991;48.682;9.030;2023-08-12T11:00:56;30.60;67.70
3954;DHT22;1991;48.682;9.030;2023-08-12T11:03:22;30.30;67.90
3954;DHT22;1991;48.682;9.030;2023-08-12T11:05:48;30.30;68.50
3954;DHT22;1991;48.682;9.030;2023-08-12T11:08:13;31.00;68.00
3954;DHT22;1991;48.682;9.030;2023-08-12T11:10:39;31.80;66.90
3954;DHT22;1991;48.682;9.030;2023-08-12T11:13:05;31.90;66.30
3954;DHT22;1991;48.682;9.030;2023-08-12T11:17:58;32.30;66.40
3954;DHT22;1991;48.682;9.030;2023-08-12T11:20:25;32.00;65.30
3954;DHT22;1991;48.682;9.030;2023-08-12T11:22:53;31.60;66.50
3954;DHT22;1991;48.682;9.030;2023-08-12T11:25:19;31.20;67.90
3954;DHT22;1991;48.682;9.030;2023-08-12T11:27:46;30.80;69.90
3954;DHT22;1991;48.682;9.030;2023-08-12T11:30:22;31.00;69.00
3954;DHT22;1991;48.682;9.030;2023-08-12T11:32:49;31.60;69.10
3954;DHT22;1991;48.682;9.030;2023-08-12T11:35:16;32.10;66.80
3954;DHT22;1991;48.682;9.030;2023-08-12T11:37:44;31.50;66.50
3954;DHT22;1991;48.682;9.030;2023-08-12T11:40:11;31.00;66.90
3954;DHT22;1991;48.682;9.030;2023-08-12T11:42:41;31.00;67.90
3954;DHT22;1991;48.682;9.030;2023-08-12T11:45:07;30.60;67.90
3954;DHT22;1991;48.682;9.030;2023-08-12T11:47:35;30.60;68.70
3954;DHT22;1991;48.682;9.030;2023-08-12T11:50:05;31.20;68.40
3954;DHT22;1991;48.682;9.030;2023-08-12T11:52:31;31.70;67.80
3954;DHT22;1991;48.682;9.030;2023-08-12T11:54:58;31.10;67.60
3954;DHT22;1991;48.682;9.030;2023-08-12T11:57:24;31.00;69.10
3954;DHT22;1991;48.682;9.030;2023-08-12T11:59:50;30.90;69.40
3954;DHT22;1991;48.682;9.030;2023-08-12T12:02:16;30.70;69.90
3954;DHT22;1991;48.682;9.030;2023-08-12T12:04:42;30.40;69.90
3954;DHT22;1991;48.682;9.030;2023-08-12T12:07:25;29.90;70.40
3954;DHT22;1991;48.682;9.030;2023-08-12T12:09:53;29.70;71.00
3954;DHT22;1991;48.682;9.030;2023-08-12T12:12:25;29.40;72.40
3954;DHT22;1991;48.682;9.030;2023-08-12T12:14:52;29.20;72.30
3954;DHT22;1991;48.682;9.030;2023-08-12T12:17:21;28.90;72.80
3954;DHT22;1991;48.682;9.030;2023-08-12T12:19:52;28.60;76.30
3954;DHT22;1991;48.682;9.030;2023-08-12T12:22:18;28.30;80.20
3954;DHT22;1991;48.682;9.030;2023-08-12T12:24:45;28.00;83.70
3954;DHT22;1991;48.682;9.030;2023-08-12T12:27:14;27.60;86.80
3954;DHT22;1991;48.682;9.030;2023-08-12T12:29:40;27.20;90.50
3954;DHT22;1991;48.682;9.030;2023-08-12T12:32:05;26.70;91.30
3954;DHT22;1991;48.682;9.030;2023-08-12T12:34:31;26.30;92.20
3954;DHT22;1991;48.682;9.030;2023-08-12T12:36:56;26.10;94.00
3954;DHT22;1991;48.682;9.030;2023-08-12T12:39:22;25.70;96.20
3954;DHT22;1991;48.682;9.030;2023-08-12T12:41:48;25.50;97.00
3954;DHT22;1991;48.682;9.030;2023-08-12T12:44:14;25.30;98.40
3954;DHT22;1991;48.682;9.030;2023-08-12T12:46:40;25.20;99.70
3954;DHT22;1991;48.682;9.030;2023-08-12T12:49:05;25.20;99.90
3954;DHT22;1991;48.682;9.030;2023-08-12T12:51:31;25.30;99.90
3954;DHT22;1991;48.682;9.030;2023-08-12T12:53:57;25.30;99.90
3954;DHT22;1991;48.682;9.030;2023-08-12T12:56:23;25.20;99.90
3954;DHT22;1991;48.682;9.030;2023-08-12T12:58:48;25.20;99.90
3954;DHT22;1991;48.682;9.030;2023-08-12T13:01:14;25.10;99.90
3954;DHT22;1991;48.682;9.030;2023-08-12T13:03:39;25.00;99.90
3954;DHT22;1991;48.682;9.030;2023-08-12T13:06:05;24.80;99.90
3954;DHT22;1991;48.682;9.030;2023-08-12T13:08:31;24.70;99.90
3954;DHT22;1991;48.682;9.030;2023-08-12T13:10:57;24.50;99.90
3954;DHT22;1991;48.682;9.030;2023-08-12T13:13:23;24.40;99.90
3954;DHT22;1991;48.682;9.030;2023-08-12T13:15:49;24.30;99.90
3954;DHT22;1991;48.682;9.030;2023-08-12T13:18:14;24.20;99.90
3954;DHT22;1991;48.682;9.030;2023-08-12T13:20:40;24.20;99.90
3954;DHT22;1991;48.682;9.030;2023-08-12T13:23:06;24.30;99.90
3954;DHT22;1991;48.682;9.030;2023-08-12T13:25:33;24.30;99.90
3954;DHT22;1991;48.682;9.030;2023-08-12T13:28:00;24.30;99.90
3954;DHT22;1991;48.682;9.030;2023-08-12T13:30:26;24.40;99.90
3954;DHT22;1991;48.682;9.030;2023-08-12T13:32:52;24.50;99.90
3954;DHT22;1991;48.682;9.030;2023-08-12T13:35:17;24.90;99.90
3954;DHT22;1991;48.682;9.030;2023-08-12T13:37:43;25.40;99.90
3954;DHT22;1991;48.682;9.030;2023-08-12T13:40:09;25.80;99.90
3954;DHT22;1991;48.682;9.030;2023-08-12T13:42:37;26.20;99.90
3954;DHT22;1991;48.682;9.030;2023-08-12T13:45:03;27.10;99.90
3954;DHT22;1991;48.682;9.030;2023-08-12T13:47:28;27.10;99.90
3954;DHT22;1991;48.682;9.030;2023-08-12T13:49:54;27.10;99.90
3954;DHT22;1991;48.682;9.030;2023-08-12T13:52:20;27.10;99.90
3954;DHT22;1991;48.682;9.030;2023-08-12T13:54:45;27.10;99.90
3954;DHT22;1991;48.682;9.030;2023-08-12T13:57:11;27.10;99.90
3954;DHT22;1991;48.682;9.030;2023-08-12T13:59:37;27.30;99.90
3954;DHT22;1991;48.682;9.030;2023-08-12T14:02:02;28.00;99.90
3954;DHT22;1991;48.682;9.030;2023-08-12T14:04:28;28.10;99.90
3954;DHT22;1991;48.682;9.030;2023-08-12T14:06:53;28.30;99.80
3954;DHT22;1991;48.682;9.030;2023-08-12T14:09:19;28.70;97.60
3954;DHT22;1991;48.682;9.030;2023-08-12T14:11:45;28.80;97.30
3954;DHT22;1991;48.682;9.030;2023-08-12T14:14:11;29.10;97.60
3954;DHT22;1991;48.682;9.030;2023-08-12T14:16:36;29.10;96.60
3954;DHT22;1991;48.682;9.030;2023-08-12T14:19:02;29.10;95.60
3954;DHT22;1991;48.682;9.030;2023-08-12T14:21:28;29.20;95.30
3954;DHT22;1991;48.682;9.030;2023-08-12T14:23:53;29.10;95.70
3954;DHT22;1991;48.682;9.030;2023-08-12T14:26:19;29.10;95.30
3954;DHT22;1991;48.682;9.030;2023-08-12T14:28:44;29.00;95.10
3954;DHT22;1991;48.682;9.030;2023-08-12T14:31:10;28.70;96.00
3954;DHT22;1991;48.682;9.030;2023-08-12T14:33:35;28.60;94.20
3954;DHT22;1991;48.682;9.030;2023-08-12T14:36:03;28.60;93.50
3954;DHT22;1991;48.682;9.030;2023-08-12T14:38:29;28.40;92.70
3954;DHT22;1991;48.682;9.030;2023-08-12T14:40:54;28.10;92.90
3954;DHT22;1991;48.682;9.030;2023-08-12T14:43:20;28.20;93.10
3954;DHT22;1991;48.682;9.030;2023-08-12T14:45:45;28.30;93.00
3954;DHT22;1991;48.682;9.030;2023-08-12T14:48:11;28.30;92.30
3954;DHT22;1991;48.682;9.030;2023-08-12T14:50:38;28.50;92.00
3954;DHT22;1991;48.682;9.030;2023-08-12T14:53:04;28.30;91.70
3954;DHT22;1991;48.682;9.030;2023-08-12T14:55:29;28.10;91.40
3954;DHT22;1991;48.682;9.030;2023-08-12T14:57:55;28.20;91.40
3954;DHT22;1991;48.682;9.030;2023-08-12T15:00:21;28.40;91.80
3954;DHT22;1991;48.682;9.030;2023-08-12T15:02:46;28.50;91.80
3954;DHT22;1991;48.682;9.030;2023-08-12T15:05:12;28.50;91.20
3954;DHT22;1991;48.682;9.030;2023-08-12T15:07:38;28.50;91.00
3954;DHT22;1991;48.682;9.030;2023-08-12T15:10:04;28.30;91.00
3954;DHT22;1991;48.682;9.030;2023-08-12T15:12:29;28.50;91.20
3954;DHT22;1991;48.682;9.030;2023-08-12T15:14:55;28.50;91.30
3954;DHT22;1991;48.682;9.030;2023-08-12T15:17:21;28.40;91.10
3954;DHT22;1991;48.682;9.030;2023-08-12T15:19:47;28.20;91.90
3954;DHT22;1991;48.682;9.030;2023-08-12T15:22:12;28.20;92.30
3954;DHT22;1991;48.682;9.030;2023-08-12T15:24:38;28.10;92.80
3954;DHT22;1991;48.682;9.030;2023-08-12T15:27:03;27.80;93.10
3954;DHT22;1991;48.682;9.030;2023-08-12T15:29:29;27.50;92.80
3954;DHT22;1991;48.682;9.030;2023-08-12T15:31:54;27.20;92.90
3954;DHT22;1991;48.682;9.030;2023-08-12T15:34:21;27.00;93.30
3954;DHT22;1991;48.682;9.030;2023-08-12T15:36:46;26.80;93.70
3954;DHT22;1991;48.682;9.030;2023-08-12T15:39:12;26.60;94.20
3954;DHT22;1991;48.682;9.030;2023-08-12T15:41:42;26.50;94.70
3954;DHT22;1991;48.682;9.030;2023-08-12T15:44:12;26.40;95.30
3954;DHT22;1991;48.682;9.030;2023-08-12T15:46:39;26.30;95.80
3954;DHT22;1991;48.682;9.030;2023-08-12T15:49:05;26.20;96.50
3954;DHT22;1991;48.682;9.030;2023-08-12T15:51:33;26.10;97.10
3954;DHT22;1991;48.682;9.030;2023-08-12T15:53:58;26.10;97.40
3954;DHT22;1991;48.682;9.030;2023-08-12T15:56:24;26.00;98.00
3954;DHT22;1991;48.682;9.030;2023-08-12T15:58:49;25.90;98.40
3954;DHT22;1991;48.682;9.030;2023-08-12T16:01:17;25.80;99.00